createdAt,value
2024-05-09T00:03:47.952Z,3.98
2024-05-09T00:09:11.490Z,4.03
2024-05-09T00:14:33.837Z,4.02
2024-05-09T00:19:56.367Z,3.90
2024-05-09T00:25:19.802Z,3.80
2024-05-09T00:30:51.935Z,3.82
2024-05-09T00:36:16.243Z,3.71
2024-05-09T00:41:56.887Z,3.71
2024-05-09T00:47:24.229Z,3.48
2024-05-09T00:58:35.036Z,3.52
2024-05-09T01:04:13.762Z,3.66
2024-05-09T01:09:36.787Z,3.56
2024-05-09T01:15:06.400Z,3.57
2024-05-09T01:20:39.205Z,3.61
2024-05-09T01:31:28.301Z,3.72
2024-05-09T01:36:50.771Z,3.62
2024-05-09T01:42:13.263Z,3.50
2024-05-09T01:47:35.745Z,3.55
2024-05-09T01:53:06.558Z,3.54
2024-05-09T01:58:30.122Z,3.51
2024-05-09T02:03:53.661Z,3.55
2024-05-09T02:09:16.220Z,3.59
2024-05-09T02:14:39.001Z,3.58
2024-05-09T02:20:01.764Z,3.57
2024-05-09T02:25:27.294Z,3.57
2024-05-09T02:30:49.620Z,3.46
2024-05-09T02:36:26.972Z,3.37
2024-05-09T02:42:05.699Z,3.38
2024-05-09T02:47:54.224Z,3.33
2024-05-09T02:53:19.599Z,3.29
2024-05-09T03:04:20.882Z,3.12
2024-05-09T03:09:43.279Z,3.00
2024-05-09T03:15:07.647Z,3.03
2024-05-09T03:20:34.369Z,3.10
2024-05-09T03:25:54.731Z,3.10
2024-05-09T03:31:18.490Z,3.23
2024-05-09T03:36:41.287Z,3.29
2024-05-09T03:42:04.117Z,3.33
2024-05-09T03:47:26.863Z,3.32
2024-05-09T03:52:50.026Z,3.32
2024-05-09T03:58:14.683Z,3.32
2024-05-09T04:09:47.012Z,3.53
2024-05-09T04:15:17.582Z,3.73
2024-05-09T04:20:41.456Z,3.97
2024-05-09T04:26:04.990Z,4.13
2024-05-09T04:31:30.557Z,4.28
2024-05-09T04:36:53.126Z,4.51
2024-05-09T04:42:21.014Z,4.70
2024-05-09T04:47:45.238Z,4.93
2024-05-09T04:53:12.435Z,5.12
2024-05-09T04:58:49.591Z,5.39
2024-05-09T05:04:11.392Z,5.71
2024-05-09T05:09:33.778Z,5.98
2024-05-09T05:14:56.078Z,6.21
2024-05-09T05:20:27.321Z,6.46
2024-05-09T05:25:43.015Z,6.69
2024-05-09T05:31:05.886Z,6.87
2024-05-09T05:36:28.659Z,7.01
2024-05-09T05:41:51.055Z,7.22
2024-05-09T05:47:13.667Z,7.49
2024-05-09T05:52:36.091Z,7.67
2024-05-09T05:57:58.581Z,7.84
2024-05-09T06:03:21.580Z,8.04
2024-05-09T06:08:44.774Z,8.24
2024-05-09T06:14:07.594Z,8.35
2024-05-09T06:19:31.388Z,8.63
2024-05-09T06:24:54.009Z,8.81
2024-05-09T06:30:25.769Z,9.03
2024-05-09T06:35:41.230Z,9.23
2024-05-09T06:41:04.551Z,9.28
2024-05-09T06:46:27.133Z,9.45
2024-05-09T06:51:52.398Z,9.65
2024-05-09T06:57:15.771Z,9.84
2024-05-09T07:02:38.421Z,10.08
2024-05-09T07:08:01.305Z,10.39
2024-05-09T07:13:26.041Z,10.86
2024-05-09T07:18:50.242Z,10.99
2024-05-09T07:24:12.724Z,10.99
2024-05-09T07:29:38.381Z,11.35
2024-05-09T07:34:59.890Z,11.90
2024-05-09T07:40:32.248Z,12.11
2024-05-09T07:45:52.784Z,12.15
2024-05-09T07:56:37.135Z,12.85
2024-05-09T08:02:00.157Z,13.21
2024-05-09T08:07:23.172Z,13.54
2024-05-09T08:12:45.601Z,13.56
2024-05-09T08:18:09.178Z,13.35
2024-05-09T08:23:32.647Z,13.41
2024-05-09T08:28:55.018Z,13.72
2024-05-09T08:34:17.540Z,13.79
2024-05-09T08:39:40.429Z,13.77
2024-05-09T08:45:04.393Z,13.77
2024-05-09T08:50:36.557Z,13.77
2024-05-09T08:55:53.714Z,13.35
2024-05-09T09:01:20.000Z,13.78
2024-05-09T09:06:45.462Z,14.09
2024-05-09T09:12:10.181Z,13.80
2024-05-09T09:17:36.064Z,13.72
2024-05-09T09:22:59.103Z,14.38
2024-05-09T09:28:22.330Z,14.73
2024-05-09T09:33:51.365Z,15.11
2024-05-09T09:39:16.079Z,15.32
2024-05-09T09:44:42.179Z,15.50
2024-05-09T09:50:09.534Z,15.51
2024-05-09T09:55:30.452Z,15.51
2024-05-09T10:00:53.103Z,15.10
2024-05-09T10:06:17.136Z,14.87
2024-05-09T10:11:49.023Z,14.76
2024-05-09T10:17:11.628Z,15.27
2024-05-09T10:22:42.104Z,15.30
2024-05-09T10:28:09.115Z,15.24
2024-05-09T10:33:32.867Z,15.61
2024-05-09T10:38:56.626Z,16.01
2024-05-09T10:44:26.378Z,16.42
2024-05-09T10:49:51.150Z,16.71
2024-05-09T10:55:14.533Z,16.87
2024-05-09T11:00:38.867Z,16.69
2024-05-09T11:06:04.806Z,16.49
2024-05-09T11:11:28.914Z,16.25
2024-05-09T11:16:51.792Z,15.65
2024-05-09T11:22:14.782Z,15.84
2024-05-09T11:27:54.887Z,15.60
2024-05-09T11:33:22.841Z,16.84
2024-05-09T11:38:47.063Z,17.22
2024-05-09T11:44:09.951Z,17.58
2024-05-09T11:49:32.991Z,17.70
2024-05-09T11:54:55.978Z,18.12
2024-05-09T12:00:29.068Z,18.28
2024-05-09T12:05:45.000Z,18.62
2024-05-09T12:11:08.710Z,19.31
2024-05-09T12:16:31.944Z,20.23
2024-05-09T12:21:55.189Z,20.88
2024-05-09T12:27:18.074Z,20.64
2024-05-09T12:32:41.198Z,20.92
2024-05-09T12:38:05.522Z,21.16
2024-05-09T12:43:28.404Z,21.10
2024-05-09T12:48:52.355Z,20.59
2024-05-09T12:54:15.454Z,21.01
2024-05-09T12:59:38.509Z,22.24
2024-05-09T13:05:01.653Z,21.98
2024-05-09T13:10:31.984Z,22.98
2024-05-09T13:15:52.268Z,22.82
2024-05-09T13:21:14.744Z,23.18
2024-05-09T13:26:37.685Z,23.24
2024-05-09T13:32:00.291Z,23.23
2024-05-09T13:37:22.779Z,23.55
2024-05-09T13:42:48.676Z,24.27
2024-05-09T13:48:10.544Z,23.77
2024-05-09T13:53:33.631Z,23.63
2024-05-09T13:58:56.175Z,23.39
2024-05-09T14:04:22.055Z,23.84
2024-05-09T14:09:44.801Z,22.90
2024-05-09T14:15:07.152Z,23.01
2024-05-09T14:20:31.952Z,22.53
2024-05-09T14:25:53.978Z,23.92
2024-05-09T14:31:16.713Z,24.09
2024-05-09T14:36:39.814Z,23.87
2024-05-09T14:42:09.782Z,24.20
2024-05-09T14:47:33.116Z,24.10
2024-05-09T14:52:55.710Z,23.81
2024-05-09T14:58:21.235Z,24.79
2024-05-09T15:03:44.923Z,25.84
2024-05-09T15:09:14.832Z,24.84
2024-05-09T15:14:37.784Z,24.63
2024-05-09T15:20:01.497Z,23.01
2024-05-09T15:25:24.147Z,24.37
2024-05-09T15:30:47.960Z,24.70
2024-05-09T15:36:10.861Z,25.42
2024-05-09T15:41:33.243Z,24.29
2024-05-09T15:46:56.351Z,24.95
2024-05-09T15:52:19.023Z,23.21
2024-05-09T15:57:41.422Z,22.38
2024-05-09T16:03:03.831Z,22.28
2024-05-09T16:08:26.744Z,22.38
2024-05-09T16:13:51.977Z,22.35
2024-05-09T16:19:14.435Z,22.20
2024-05-09T16:24:38.243Z,22.08
2024-05-09T16:30:04.112Z,22.31
2024-05-09T16:35:26.533Z,22.08
2024-05-09T16:40:49.265Z,21.87
2024-05-09T16:46:12.071Z,22.14
2024-05-09T16:51:34.704Z,22.24
2024-05-09T16:56:58.105Z,22.23
2024-05-09T17:02:21.087Z,21.87
2024-05-09T17:07:44.398Z,21.57
2024-05-09T17:13:08.057Z,22.24
2024-05-09T17:18:31.967Z,21.57
2024-05-09T17:23:55.833Z,20.45
2024-05-09T17:29:18.283Z,20.82
2024-05-09T17:34:40.667Z,20.24
2024-05-09T17:40:06.662Z,18.79
2024-05-09T17:45:27.013Z,18.21
2024-05-09T17:50:51.091Z,17.66
2024-05-09T17:56:14.326Z,16.60
2024-05-09T18:01:37.430Z,16.13
2024-05-09T18:07:00.742Z,15.32
2024-05-09T18:12:23.897Z,14.26
2024-05-09T18:17:47.787Z,13.71
2024-05-09T18:23:10.476Z,13.47
2024-05-09T18:28:33.495Z,13.20
2024-05-09T18:33:56.010Z,13.13
2024-05-09T18:39:18.944Z,12.90
2024-05-09T18:44:41.367Z,12.79
2024-05-09T18:50:05.928Z,12.04
2024-05-09T18:55:27.857Z,11.78
2024-05-09T19:00:53.330Z,11.82
2024-05-09T19:06:15.080Z,11.41
2024-05-09T19:11:39.886Z,11.21
2024-05-09T19:17:02.356Z,10.91
2024-05-09T19:22:25.312Z,10.93
2024-05-09T19:27:48.555Z,10.67
2024-05-09T19:33:12.977Z,10.50
2024-05-09T19:38:35.925Z,10.47
2024-05-09T19:43:58.402Z,10.38
2024-05-09T19:49:21.260Z,10.32
2024-05-09T19:54:45.809Z,10.31
2024-05-09T20:00:12.064Z,10.18
2024-05-09T20:05:33.292Z,10.13
2024-05-09T20:10:55.918Z,10.28
2024-05-09T20:16:19.407Z,10.35
2024-05-09T20:21:41.957Z,10.42
2024-05-09T20:27:04.541Z,10.48
2024-05-09T20:32:26.979Z,10.60
2024-05-09T20:37:49.325Z,10.68
2024-05-09T20:43:12.176Z,10.62
2024-05-09T20:48:34.826Z,10.46
2024-05-09T20:53:57.233Z,10.28
2024-05-09T20:59:19.595Z,10.09
2024-05-09T21:04:42.142Z,10.08
2024-05-09T21:10:10.160Z,9.85
2024-05-09T21:15:28.552Z,9.73
2024-05-09T21:20:50.872Z,9.51
2024-05-09T21:26:14.776Z,10.69
2024-05-09T21:31:37.949Z,11.24
2024-05-09T21:37:00.462Z,11.43
2024-05-09T21:42:22.895Z,11.47
2024-05-09T21:47:47.148Z,11.67
2024-05-09T21:53:09.726Z,11.69
2024-05-09T21:58:32.593Z,11.61
2024-05-09T22:03:56.253Z,11.30
2024-05-09T22:09:18.880Z,11.06
2024-05-09T22:14:41.171Z,11.06
2024-05-09T22:20:11.718Z,10.96
2024-05-09T22:25:30.898Z,10.81
2024-05-09T22:30:54.600Z,10.75
2024-05-09T22:36:18.576Z,10.55
2024-05-09T22:41:41.173Z,10.54
2024-05-09T22:47:03.507Z,10.23
2024-05-09T22:52:25.828Z,9.81
2024-05-09T22:57:49.116Z,9.49
2024-05-09T23:03:15.710Z,9.25
2024-05-09T23:08:38.547Z,9.08
2024-05-09T23:14:01.316Z,8.83
2024-05-09T23:19:23.904Z,8.65
2024-05-09T23:24:47.465Z,8.48
2024-05-09T23:30:12.520Z,8.25
2024-05-09T23:35:34.322Z,8.16
2024-05-09T23:40:57.039Z,8.08
2024-05-09T23:46:19.527Z,7.91
2024-05-09T23:51:41.920Z,7.83
2024-05-09T23:57:04.294Z,7.89
